Accueil
METAR-TAF:

METAR-TAF

Aéroports :

Aéroport international de Hanovre Langenhagen

Hanovre, Allemagne

latitude: 52-28N, longitude: 009-41E, altitude: 56 m

Observation

Le bulletin a été fait il y a 34 minutes, à 01:50 UTC
Vent 1 kt de direction variable
Température 14°C
Humidité 82%
Pression 1022 hPa
Visibilité 10 km ou plus
pas de nuages en-dessous de 1500 mètres et pas de cumulonimbus.

METAR: EDDV 190150Z VRB01KT CAVOK 14/11 Q1022

Heure: 04:24 (02:24 UTC)

Prévision

Le bulletin a été fait il y a 3 heures et 24 minutes, à 23:00 UTC
Prévision valable du 19 à 00 UTC au 19 à 24 UTC
Vent 3 kt de direction variable
Visibilité 10 km ou plus
Quelques nuages à une hauteur de 4000 ft
Evoluant progressivement
du 19 à 07 UTC au 19 à 09 UTC
Vent 9 kt de ouest/sud-ouest
Evoluant progressivement
du 19 à 16 UTC au 19 à 18 UTC
Vent 4 kt de ouest/sud-ouest

TAF: EDDV 182300Z 1900/1924 VRB03KT 9999 FEW040 BECMG 1907/1909 25009KT BECMG 1916/1918 25004KT

Observations et prévisions météorologiques de plus de 4000 aéroports (messages METAR et TAF).

Les stations disponibles sont représentées par des disques jaunes et rouges sur la carte.

Passer la souris dessus pour voir le nom de la station.

Cliquer dessus pour voir les observations et prévisions météorologiques.

Pour changer de carte: cliquez sur les boutons verts avec une croix noire pour zoomer, sur le bouton vert avec un tiret pour effectuer un zoom arrière, ou sur les flèches vertes pour les cartes adjacentes.


METAR-TAF: